Time;durP1;ratioP1;P1;durP2;ratioP2;P2;SDS_P1;SDS_P2;PMS_P1;PMS_P2;Temp;Humidity;BMP_temperature;BMP_pressure;BME280_temperature;BME280_humidity;BME280_pressure;Samples;Min_cycle;Max_cycle;Signal;HPM_P1;HPM_P2
2022/11/04 00:02:02;;;;;;;9.00;8.70;;;13.20;45.10;;;;;;5043648;28;20866;-46
2022/11/04 00:04:27;;;;;;;8.87;8.37;;;13.10;44.50;;;;;;5043146;28;20497;-48
2022/11/04 00:06:54;;;;;;;9.23;8.93;;;13.10;44.80;;;;;;5042304;28;20473;-47
2022/11/04 00:09:23;;;;;;;9.40;9.10;;;13.00;45.00;;;;;;5042974;28;21190;-47
2022/11/04 00:14:34;;;;;;;9.10;8.80;;;12.90;44.90;;;;;;5060900;28;20767;-50
2022/11/04 00:17:20;;;;;;;9.13;8.73;;;12.90;45.60;;;;;;5047267;28;20424;-46
2022/11/04 00:33:56;;;;;;;9.20;8.90;;;12.80;45.70;;;;;;5063117;28;20449;-50
2022/11/04 00:36:23;;;;;;;8.00;7.70;;;12.90;45.60;;;;;;5045724;28;20421;-51
2022/11/04 00:38:48;;;;;;;8.90;8.60;;;12.90;45.60;;;;;;5043754;28;20422;-52
2022/11/04 00:41:26;;;;;;;9.17;8.87;;;12.90;45.70;;;;;;5045588;28;20779;-48
2022/11/04 00:43:57;;;;;;;8.60;8.30;;;12.70;45.40;;;;;;5063486;28;20515;-46
2022/11/04 00:46:23;;;;;;;8.50;8.20;;;12.70;45.70;;;;;;5044301;28;20465;-49
2022/11/04 00:48:49;;;;;;;8.10;7.80;;;12.70;46.50;;;;;;5047132;28;20798;-48
2022/11/04 00:51:14;;;;;;;8.27;7.87;;;12.60;46.10;;;;;;5063889;28;20541;-48
2022/11/04 00:53:40;;;;;;;8.37;8.10;;;12.70;46.50;;;;;;5064643;28;20198;-48
2022/11/04 00:56:06;;;;;;;8.57;8.27;;;12.70;46.50;;;;;;5047576;28;20183;-51
2022/11/04 00:58:31;;;;;;;8.60;8.30;;;12.60;45.90;;;;;;5046253;28;20180;-49
2022/11/04 01:00:57;;;;;;;9.73;8.83;;;12.60;46.90;;;;;;5044766;28;20620;-46
2022/11/04 01:03:23;;;;;;;8.47;8.17;;;12.50;45.80;;;;;;5044557;28;20542;-49
2022/11/04 01:05:48;;;;;;;8.67;8.47;;;12.50;46.40;;;;;;5045448;28;20267;-48
2022/11/04 01:08:14;;;;;;;8.47;8.27;;;12.40;45.70;;;;;;5043621;28;20531;-46
2022/11/04 01:10:43;;;;;;;8.63;8.33;;;12.50;46.30;;;;;;5043760;28;20267;-48
2022/11/04 01:13:13;;;;;;;8.60;8.30;;;12.40;46.80;;;;;;5043713;28;20182;-48
2022/11/04 01:15:38;;;;;;;7.23;7.03;;;12.40;46.80;;;;;;5044746;28;20422;-47
2022/11/04 01:18:05;;;;;;;8.20;7.90;;;12.40;46.30;;;;;;5044066;28;20417;-46
2022/11/04 01:20:31;;;;;;;8.87;8.57;;;12.40;46.20;;;;;;5044704;28;20179;-52
2022/11/04 01:22:57;;;;;;;8.23;8.03;;;12.40;45.80;;;;;;5043250;28;20993;-51
2022/11/04 01:25:23;;;;;;;8.93;8.63;;;12.50;46.70;;;;;;5043371;28;20544;-48
2022/11/04 01:27:48;;;;;;;7.90;7.70;;;12.60;45.90;;;;;;5041341;28;20179;-47
2022/11/04 01:30:14;;;;;;;8.30;8.00;;;12.70;45.40;;;;;;5062376;28;20176;-48
2022/11/04 01:32:40;;;;;;;9.03;8.73;;;12.80;44.80;;;;;;5044450;28;20214;-49
2022/11/04 01:35:06;;;;;;;9.50;9.20;;;13.00;44.30;;;;;;5043158;28;20925;-50
2022/11/04 01:37:32;;;;;;;8.53;8.33;;;12.80;44.10;;;;;;5043561;28;20650;-48
2022/11/04 01:39:58;;;;;;;8.17;7.90;;;12.70;44.50;;;;;;5042804;28;20428;-48
2022/11/04 01:42:23;;;;;;;8.73;8.43;;;12.60;45.00;;;;;;5044523;28;20675;-48
2022/11/04 01:44:55;;;;;;;8.80;8.57;;;12.50;43.80;;;;;;5045256;28;20181;-46
2022/11/04 01:47:41;;;;;;;9.17;8.87;;;12.40;45.70;;;;;;5043642;28;20607;-48
2022/11/04 01:50:11;;;;;;;8.77;8.47;;;12.40;46.20;;;;;;5044998;28;20452;-46
2022/11/04 01:52:46;;;;;;;8.77;8.37;;;12.50;46.20;;;;;;5044069;28;20421;-47
2022/11/04 01:55:18;;;;;;;8.60;8.40;;;12.50;45.60;;;;;;5042693;28;20428;-49
2022/11/04 01:57:47;;;;;;;9.13;8.60;;;12.50;46.20;;;;;;5042687;28;20425;-48
2022/11/04 02:00:14;;;;;;;8.40;8.10;;;12.50;46.00;;;;;;5042945;28;20450;-47
2022/11/04 02:02:58;;;;;;;7.93;7.73;;;12.50;46.60;;;;;;5042751;28;20490;-60
2022/11/04 02:05:23;;;;;;;8.77;8.57;;;12.50;45.60;;;;;;5042584;28;21038;-60
2022/11/04 02:07:51;;;;;;;8.97;8.37;;;12.50;46.80;;;;;;5044008;28;20441;-60
2022/11/04 02:10:21;;;;;;;8.03;7.83;;;12.50;46.00;;;;;;5043138;28;20217;-60
2022/11/04 02:12:50;;;;;;;8.87;8.57;;;12.60;46.20;;;;;;5042924;28;20909;-61
2022/11/04 02:15:29;;;;;;;8.47;8.07;;;12.70;46.10;;;;;;5043335;28;20541;-52
2022/11/04 02:17:54;;;;;;;8.67;8.37;;;12.80;45.20;;;;;;5042240;28;20628;-48
2022/11/04 02:20:55;;;;;;;8.63;8.33;;;12.70;44.00;;;;;;5041891;28;20425;-49
2022/11/04 02:23:54;;;;;;;8.63;8.33;;;12.70;44.00;;;;;;5042420;28;20187;-52
2022/11/04 02:26:48;;;;;;;7.93;7.73;;;12.60;44.40;;;;;;5042118;28;20551;-54
2022/11/04 02:29:24;;;;;;;8.63;8.30;;;12.50;43.80;;;;;;5041617;28;20571;-53
2022/11/04 02:32:01;;;;;;;8.20;8.00;;;12.40;44.30;;;;;;5042845;28;20504;-52
2022/11/04 02:34:45;;;;;;;8.53;8.23;;;12.30;43.60;;;;;;5043370;28;20417;-49
2022/11/04 02:37:31;;;;;;;8.97;8.67;;;12.30;44.10;;;;;;5042853;28;20445;-48
2022/11/04 02:40:24;;;;;;;8.50;8.20;;;12.30;43.80;;;;;;5040582;28;20419;-51
2022/11/04 02:43:14;;;;;;;8.30;8.00;;;12.20;44.00;;;;;;5041268;28;20441;-52
2022/11/04 02:45:41;;;;;;;8.23;7.93;;;12.20;43.60;;;;;;5045402;28;20552;-54
2022/11/04 02:48:18;;;;;;;7.80;7.60;;;12.20;43.00;;;;;;5036578;28;20900;-47
2022/11/04 02:50:58;;;;;;;7.87;7.67;;;12.20;42.90;;;;;;5051586;28;20430;-47
2022/11/04 02:53:53;;;;;;;8.40;8.20;;;12.30;43.50;;;;;;5022213;28;20437;-50
2022/11/04 02:56:21;;;;;;;8.13;7.80;;;12.50;41.60;;;;;;5011196;28;20420;-48
2022/11/04 02:58:57;;;;;;;7.80;7.60;;;12.40;41.20;;;;;;5031997;28;20901;-47
2022/11/04 03:01:28;;;;;;;8.33;8.13;;;12.40;40.60;;;;;;5040123;28;20515;-49
2022/11/04 03:04:01;;;;;;;8.53;8.13;;;12.40;40.60;;;;;;5040725;28;20516;-51
2022/11/04 03:06:28;;;;;;;7.87;7.67;;;12.50;38.90;;;;;;5058160;28;20464;-52
2022/11/04 03:08:56;;;;;;;7.87;7.57;;;12.60;39.50;;;;;;5041228;28;20406;-52
2022/11/04 03:11:24;;;;;;;8.03;7.73;;;12.80;39.70;;;;;;5040483;28;20417;-49
2022/11/04 03:14:23;;;;;;;8.13;7.93;;;13.00;38.80;;;;;;5040938;28;20559;-52
2022/11/04 03:16:57;;;;;;;8.37;8.07;;;13.20;38.20;;;;;;5041836;28;20492;-51
2022/11/04 03:19:29;;;;;;;8.57;8.27;;;13.40;37.30;;;;;;5042563;28;20431;-48
2022/11/04 03:22:05;;;;;;;8.60;8.30;;;13.50;36.60;;;;;;5043122;28;20955;-49
2022/11/04 03:24:31;;;;;;;8.03;7.83;;;13.60;36.00;;;;;;5040359;28;20440;-54
2022/11/04 03:27:15;;;;;;;8.00;7.80;;;13.70;35.40;;;;;;5041013;28;20536;-50
2022/11/04 03:30:10;;;;;;;8.90;8.43;;;13.80;34.80;;;;;;5041555;28;20571;-52
2022/11/04 03:32:42;;;;;;;8.83;8.63;;;13.60;34.80;;;;;;5040432;28;20424;-53
2022/11/04 03:35:09;;;;;;;9.03;8.63;;;13.50;34.60;;;;;;5041000;28;20498;-50
2022/11/04 03:37:35;;;;;;;7.87;7.67;;;13.30;34.40;;;;;;5041740;28;20426;-48
2022/11/04 03:40:02;;;;;;;8.80;8.50;;;13.10;35.60;;;;;;5042588;28;20425;-50
2022/11/04 03:42:30;;;;;;;9.20;8.90;;;13.10;36.70;;;;;;5041304;28;20831;-52
2022/11/04 03:44:56;;;;;;;8.63;8.33;;;13.30;36.80;;;;;;5041369;28;20425;-50
2022/11/04 03:47:27;;;;;;;8.50;8.20;;;13.40;36.50;;;;;;5038758;28;20830;-53
2022/11/04 03:50:26;;;;;;;8.40;8.10;;;13.50;35.80;;;;;;5040845;28;20486;-50
2022/11/04 03:52:52;;;;;;;8.53;8.33;;;13.60;35.30;;;;;;5031841;28;20447;-50
2022/11/04 03:55:17;;;;;;;9.30;8.80;;;13.70;35.10;;;;;;5046829;28;20417;-53
2022/11/04 03:57:53;;;;;;;8.47;8.20;;;13.80;34.80;;;;;;5046362;28;20179;-47
2022/11/04 04:00:21;;;;;;;7.57;7.37;;;13.60;35.70;;;;;;5046885;28;20554;-61
2022/11/04 04:03:03;;;;;;;7.87;7.57;;;13.70;35.30;;;;;;5046005;28;20983;-61
2022/11/04 04:05:47;;;;;;;8.40;8.20;;;13.80;35.10;;;;;;5063880;28;20500;-60
2022/11/04 04:08:27;;;;;;;8.53;8.13;;;13.80;35.10;;;;;;5047903;28;20927;-61
2022/11/04 04:11:14;;;;;;;8.60;8.40;;;13.80;35.20;;;;;;5047785;28;20454;-60
2022/11/04 04:14:39;;;;;;;8.83;8.37;;;13.70;35.60;;;;;;5047202;28;20510;-61
2022/11/04 04:17:19;;;;;;;8.50;8.20;;;13.40;37.10;;;;;;5047995;28;20422;-60
2022/11/04 04:19:53;;;;;;;9.00;8.70;;;13.00;38.40;;;;;;5047273;28;20508;-60
2022/11/04 04:22:26;;;;;;;9.37;9.07;;;12.90;38.70;;;;;;5049093;28;20955;-60
2022/11/04 04:27:41;;;;;;;8.73;8.40;;;12.80;39.40;;;;;;5065102;28;20404;-61
2022/11/04 04:30:11;;;;;;;9.20;8.90;;;13.00;37.90;;;;;;5046979;28;20478;-61
2022/11/04 04:32:41;;;;;;;9.40;9.00;;;13.20;36.60;;;;;;5051167;28;20983;-60
2022/11/04 04:44:58;;;;;;;9.43;9.13;;;13.00;36.90;;;;;;5068645;28;20900;-61
2022/11/04 04:46:14;;;;;;;9.13;8.83;;;12.40;39.10;;;;;;5068698;28;20492;-60
2022/11/04 04:48:40;;;;;;;9.13;8.73;;;12.30;39.90;;;;;;5051474;28;20422;-61
2022/11/04 04:51:06;;;;;;;9.60;9.30;;;12.20;40.70;;;;;;5051864;28;20511;-49
2022/11/04 04:53:31;;;;;;;9.53;9.13;;;12.00;40.90;;;;;;5054071;28;20270;-53
2022/11/04 04:55:57;;;;;;;9.13;8.80;;;12.00;41.70;;;;;;5070443;28;20172;-46
2022/11/04 04:58:22;;;;;;;8.63;8.33;;;12.10;41.70;;;;;;5051629;28;20185;-46
2022/11/04 05:00:48;;;;;;;9.50;9.20;;;12.30;40.10;;;;;;5050210;28;20175;-47
2022/11/04 05:03:14;;;;;;;9.23;8.93;;;12.50;38.70;;;;;;5052906;28;20176;-47
2022/11/04 05:05:39;;;;;;;9.80;9.50;;;12.70;38.00;;;;;;5053794;28;20280;-50
2022/11/04 05:08:06;;;;;;;10.17;9.87;;;12.90;37.10;;;;;;5054397;28;20198;-48
2022/11/04 05:10:32;;;;;;;10.40;10.00;;;13.10;36.10;;;;;;5052155;28;20186;-48
2022/11/04 05:15:43;;;;;;;10.03;9.63;;;13.20;34.90;;;;;;5072122;28;20587;-48
2022/11/04 05:18:09;;;;;;;11.20;10.80;;;13.30;34.40;;;;;;5050747;28;20413;-60
2022/11/04 05:20:37;;;;;;;10.37;10.07;;;13.40;34.50;;;;;;5050317;28;20910;-60
2022/11/04 05:23:03;;;;;;;10.67;10.27;;;13.50;34.60;;;;;;5053234;28;20432;-49
2022/11/04 05:25:28;;;;;;;10.30;10.00;;;13.50;34.10;;;;;;5053248;28;20461;-47
2022/11/04 05:27:59;;;;;;;11.47;10.97;;;13.30;34.40;;;;;;5051833;28;20181;-60
2022/11/04 05:30:24;;;;;;;10.83;10.43;;;12.80;35.30;;;;;;5052777;28;20179;-49
2022/11/04 05:32:50;;;;;;;12.23;11.73;;;12.60;36.80;;;;;;5052835;28;20414;-49
2022/11/04 05:35:15;;;;;;;10.80;10.30;;;12.30;37.70;;;;;;5052061;28;20179;-49
2022/11/04 05:37:41;;;;;;;10.77;10.43;;;12.30;38.00;;;;;;5053221;28;20215;-48
2022/11/04 05:40:07;;;;;;;11.87;11.30;;;12.00;39.50;;;;;;5051507;28;20890;-47
2022/11/04 05:42:33;;;;;;;9.97;9.67;;;11.90;40.30;;;;;;5052899;28;20190;-48
2022/11/04 05:44:58;;;;;;;11.47;10.97;;;11.90;40.10;;;;;;5051774;28;20425;-51
2022/11/04 05:47:24;;;;;;;11.10;10.70;;;12.00;40.70;;;;;;5034724;28;20194;-48
2022/11/04 05:49:49;;;;;;;10.77;10.47;;;11.90;40.00;;;;;;5053648;28;20198;-53
2022/11/04 05:52:16;;;;;;;10.70;10.40;;;11.90;40.60;;;;;;5051712;28;20261;-47
2022/11/04 05:54:42;;;;;;;10.63;10.23;;;12.10;40.80;;;;;;5052012;28;20179;-61
2022/11/04 05:57:09;;;;;;;11.53;10.90;;;12.30;39.60;;;;;;5049717;28;20405;-60
2022/11/04 05:59:35;;;;;;;10.00;9.70;;;12.40;38.70;;;;;;5050685;28;20179;-46
2022/11/04 06:02:01;;;;;;;11.20;10.70;;;12.50;38.10;;;;;;5049401;28;20920;-47
2022/11/04 06:04:27;;;;;;;10.77;10.33;;;12.70;38.00;;;;;;5049355;28;20658;-61
2022/11/04 06:06:52;;;;;;;10.93;10.53;;;12.80;37.30;;;;;;5049840;28;20465;-50
2022/11/04 06:09:18;;;;;;;10.87;10.47;;;12.90;36.30;;;;;;5049862;28;20182;-53
2022/11/04 06:11:44;;;;;;;10.47;10.07;;;13.00;35.70;;;;;;5048889;28;20171;-51
2022/11/04 06:14:09;;;;;;;11.63;11.00;;;13.00;35.20;;;;;;5057965;28;20182;-59
2022/11/04 06:16:35;;;;;;;11.00;10.60;;;13.10;36.00;;;;;;5023791;28;20179;-60
2022/11/04 06:19:01;;;;;;;11.17;10.67;;;13.10;34.30;;;;;;5001602;28;20264;-58
2022/11/04 06:21:29;;;;;;;11.40;10.90;;;13.20;34.30;;;;;;4992900;28;20260;-58
2022/11/04 06:23:56;;;;;;;10.80;10.40;;;13.20;34.30;;;;;;4991616;28;20954;-58
2022/11/04 06:26:24;;;;;;;11.17;10.57;;;13.20;34.30;;;;;;4996363;28;21005;-58
2022/11/04 06:28:50;;;;;;;10.97;10.57;;;13.00;34.10;;;;;;4997440;28;20463;-59
2022/11/04 06:31:16;;;;;;;10.90;10.53;;;13.10;34.80;;;;;;4998084;28;20989;-58
2022/11/04 06:33:43;;;;;;;11.77;11.17;;;13.10;34.60;;;;;;4995481;28;20232;-60
2022/11/04 06:36:11;;;;;;;11.40;10.97;;;13.30;34.40;;;;;;4998445;28;20553;-59
2022/11/04 06:38:38;;;;;;;11.70;11.20;;;13.40;34.50;;;;;;4996589;28;20971;-49
2022/11/04 06:41:05;;;;;;;11.20;10.70;;;13.40;33.60;;;;;;4995934;28;20543;-49
2022/11/04 06:43:31;;;;;;;11.67;10.97;;;13.40;33.40;;;;;;4997067;28;20544;-48
2022/11/04 06:45:58;;;;;;;10.87;10.37;;;13.50;33.60;;;;;;4997752;28;20499;-49
2022/11/04 06:48:24;;;;;;;11.70;11.20;;;13.50;33.50;;;;;;4997480;28;20583;-51
2022/11/04 06:50:50;;;;;;;12.20;11.60;;;13.50;33.60;;;;;;4997542;28;20474;-56
2022/11/04 06:53:16;;;;;;;11.17;10.67;;;13.30;33.70;;;;;;4997463;28;20597;-54
2022/11/04 06:55:42;;;;;;;10.87;10.47;;;13.30;34.40;;;;;;4977995;28;20930;-53
2022/11/04 06:58:08;;;;;;;11.80;11.40;;;13.10;34.20;;;;;;4977796;28;20232;-51
2022/11/04 07:00:33;;;;;;;10.47;10.13;;;12.70;35.40;;;;;;4977511;28;20236;-50
2022/11/04 07:02:59;;;;;;;10.07;9.73;;;12.40;36.50;;;;;;4977957;28;20458;-45
2022/11/04 07:05:25;;;;;;;10.10;9.70;;;12.00;37.90;;;;;;4977937;28;20292;-48
2022/11/04 07:07:50;;;;;;;10.50;10.13;;;12.00;38.10;;;;;;4977704;28;20697;-47
2022/11/04 07:10:16;;;;;;;11.57;11.10;;;11.70;39.50;;;;;;4990621;28;20369;-51
2022/11/04 07:12:43;;;;;;;11.20;10.70;;;11.60;40.00;;;;;;4996841;28;20228;-55
2022/11/04 07:15:09;;;;;;;10.23;9.83;;;11.60;40.20;;;;;;4993285;28;20228;-55
2022/11/04 07:17:35;;;;;;;10.70;10.30;;;11.60;40.70;;;;;;4998072;28;20451;-54
2022/11/04 07:20:00;;;;;;;10.73;10.13;;;11.70;40.30;;;;;;4995976;28;20443;-54
2022/11/04 07:22:26;;;;;;;10.73;10.03;;;11.80;41.00;;;;;;4996490;28;20232;-53
2022/11/04 07:24:51;;;;;;;11.47;10.77;;;11.90;40.00;;;;;;4995525;28;20224;-53
2022/11/04 07:27:17;;;;;;;12.03;11.43;;;12.00;40.00;;;;;;4999188;28;20246;-53
2022/11/04 07:29:43;;;;;;;10.03;9.63;;;11.80;40.30;;;;;;4995755;28;20857;-54
2022/11/04 07:32:08;;;;;;;11.07;10.60;;;11.60;41.20;;;;;;4977879;28;20220;-53
2022/11/04 07:34:34;;;;;;;11.50;10.80;;;11.50;42.10;;;;;;4981781;28;20248;-53
2022/11/04 07:37:00;;;;;;;12.20;11.60;;;11.50;41.80;;;;;;4968012;28;20548;-52
2022/11/04 07:39:25;;;;;;;11.60;11.20;;;11.50;42.10;;;;;;4972721;28;20228;-52
2022/11/04 07:41:51;;;;;;;11.03;10.63;;;11.50;41.90;;;;;;5005290;28;20477;-52
2022/11/04 07:44:16;;;;;;;11.23;10.83;;;11.50;41.50;;;;;;4991742;28;20228;-55
2022/11/04 07:46:42;;;;;;;11.77;11.27;;;11.60;41.20;;;;;;4987753;28;20239;-52
2022/11/04 07:49:08;;;;;;;12.30;11.50;;;11.60;41.30;;;;;;4980030;28;20244;-55
2022/11/04 07:51:33;;;;;;;11.40;11.00;;;11.50;41.30;;;;;;4971547;28;20708;-53
2022/11/04 07:54:00;;;;;;;11.40;10.97;;;11.50;41.40;;;;;;4996385;28;20235;-51
2022/11/04 07:56:25;;;;;;;11.83;11.23;;;11.40;41.80;;;;;;5003042;28;20596;-53
2022/11/04 07:58:52;;;;;;;12.80;12.00;;;11.20;42.70;;;;;;5002544;28;20446;-52
2022/11/04 08:01:21;;;;;;;10.97;10.57;;;11.30;42.80;;;;;;5000903;28;20870;-54
2022/11/04 08:03:48;;;;;;;11.87;11.43;;;11.30;42.80;;;;;;4992941;28;20895;-50
2022/11/04 08:06:15;;;;;;;11.57;11.00;;;11.30;41.90;;;;;;4988618;28;20547;-51
2022/11/04 08:08:44;;;;;;;11.80;11.30;;;11.40;42.00;;;;;;5002464;28;20462;-53
2022/11/04 08:11:17;;;;;;;11.17;10.47;;;11.50;41.90;;;;;;5001734;28;20454;-52
2022/11/04 08:13:44;;;;;;;10.60;10.00;;;11.60;41.40;;;;;;5001750;28;20462;-53
2022/11/04 08:16:12;;;;;;;10.80;10.30;;;11.80;40.20;;;;;;5001768;28;20439;-51
2022/11/04 08:18:39;;;;;;;10.40;9.90;;;11.70;40.40;;;;;;5001916;28;20450;-50
2022/11/04 08:21:05;;;;;;;10.67;10.33;;;11.60;40.20;;;;;;4986511;28;20454;-50
2022/11/04 08:23:32;;;;;;;11.30;10.70;;;11.50;40.40;;;;;;4989695;28;20447;-51
2022/11/04 08:25:58;;;;;;;11.63;11.13;;;11.40;40.90;;;;;;5002486;28;20282;-52
2022/11/04 08:28:24;;;;;;;10.43;10.13;;;11.50;40.50;;;;;;5001899;28;20454;-54
2022/11/04 08:31:01;;;;;;;10.13;9.70;;;11.60;40.90;;;;;;5001068;28;20434;-55
2022/11/04 08:33:29;;;;;;;10.57;10.17;;;11.60;40.70;;;;;;4990357;28;20788;-51
2022/11/04 08:36:03;;;;;;;10.57;10.17;;;11.60;40.30;;;;;;4982450;28;20443;-53
2022/11/04 08:38:29;;;;;;;10.60;10.10;;;11.70;40.50;;;;;;4999091;28;20833;-49
2022/11/04 08:40:59;;;;;;;10.50;10.17;;;11.70;39.90;;;;;;4989116;28;20452;-49
2022/11/04 08:43:25;;;;;;;11.03;10.50;;;11.90;39.60;;;;;;4982738;28;20229;-51
2022/11/04 08:45:52;;;;;;;11.40;11.00;;;12.10;39.30;;;;;;4981700;28;20863;-53
2022/11/04 08:48:18;;;;;;;10.80;10.30;;;12.20;38.70;;;;;;4982283;28;20447;-51
2022/11/04 08:50:48;;;;;;;11.87;11.40;;;12.30;38.40;;;;;;4981234;28;20459;-53
2022/11/04 08:53:14;;;;;;;11.30;10.80;;;12.40;38.20;;;;;;4995748;28;20220;-54
2022/11/04 08:55:40;;;;;;;10.67;10.27;;;12.40;36.70;;;;;;5001770;28;20458;-49
2022/11/04 08:58:06;;;;;;;11.33;10.83;;;12.20;36.60;;;;;;5001661;28;20650;-53
2022/11/04 09:00:31;;;;;;;10.47;9.97;;;12.10;36.60;;;;;;5000463;28;20275;-49
2022/11/04 09:02:58;;;;;;;10.60;9.97;;;12.00;36.50;;;;;;5002544;28;20311;-54
2022/11/04 09:05:24;;;;;;;10.50;10.10;;;12.10;37.20;;;;;;5002153;28;20307;-55
2022/11/04 09:07:50;;;;;;;10.30;9.73;;;12.00;36.90;;;;;;5002136;28;20470;-55
2022/11/04 09:10:16;;;;;;;9.80;9.40;;;11.90;36.80;;;;;;5002113;28;20435;-55
2022/11/04 09:12:43;;;;;;;10.97;10.40;;;11.90;37.10;;;;;;4993206;28;20296;-54
2022/11/04 09:15:10;;;;;;;10.77;10.10;;;11.80;36.60;;;;;;4981594;28;20432;-55
2022/11/04 09:17:36;;;;;;;11.40;10.90;;;11.90;36.30;;;;;;4982590;28;20823;-55
2022/11/04 09:20:02;;;;;;;10.87;10.47;;;11.80;36.60;;;;;;4991986;28;20447;-48
2022/11/04 09:22:27;;;;;;;10.70;10.30;;;11.80;36.00;;;;;;5000369;28;20849;-47
2022/11/04 09:24:53;;;;;;;10.47;10.07;;;11.70;36.00;;;;;;5001559;28;20443;-47
2022/11/04 09:27:19;;;;;;;10.37;9.77;;;11.70;35.90;;;;;;5001445;28;20235;-52
2022/11/04 09:29:45;;;;;;;9.60;9.20;;;11.70;36.40;;;;;;5018228;28;20228;-55
2022/11/04 09:32:10;;;;;;;11.07;9.80;;;11.80;36.20;;;;;;4982726;28;20600;-52
2022/11/04 09:34:36;;;;;;;10.57;10.07;;;11.90;36.40;;;;;;4987020;28;20232;-53
2022/11/04 09:37:02;;;;;;;10.47;9.93;;;12.10;35.70;;;;;;4998988;28;20704;-51
2022/11/04 09:39:27;;;;;;;9.30;9.00;;;12.10;35.00;;;;;;5000453;28;20274;-49
2022/11/04 09:42:37;;;;;;;10.47;10.07;;;12.00;35.10;;;;;;5000724;28;20525;-55
2022/11/04 09:45:10;;;;;;;10.73;10.03;;;12.00;33.80;;;;;;4989624;28;20228;-54
2022/11/04 09:47:39;;;;;;;9.73;9.33;;;12.10;34.00;;;;;;4980409;28;20440;-50
2022/11/04 09:50:10;;;;;;;11.00;10.60;;;12.10;33.30;;;;;;4989420;28;20554;-54
2022/11/04 09:52:43;;;;;;;9.00;8.60;;;12.20;32.70;;;;;;4999719;28;20977;-51
2022/11/04 09:55:23;;;;;;;10.20;9.70;;;12.20;33.40;;;;;;5000221;28;20537;-50
2022/11/04 09:57:59;;;;;;;9.33;8.93;;;12.20;33.40;;;;;;4999957;28;20439;-52
2022/11/04 10:00:26;;;;;;;9.73;9.43;;;12.10;33.30;;;;;;4999117;28;20477;-47
2022/11/04 10:03:18;;;;;;;10.63;10.03;;;12.20;33.50;;;;;;5000566;28;20443;-49
2022/11/04 10:05:52;;;;;;;8.10;7.60;;;12.30;32.90;;;;;;5000109;28;20455;-47
2022/11/04 10:08:38;;;;;;;9.90;9.40;;;12.30;33.40;;;;;;4999625;28;20454;-51
2022/11/04 10:11:15;;;;;;;11.87;9.63;;;12.20;33.40;;;;;;4999889;28;20451;-47
2022/11/04 10:14:29;;;;;;;9.83;9.43;;;12.30;33.10;;;;;;4997966;28;20962;-50
2022/11/04 10:17:18;;;;;;;8.77;8.27;;;12.40;33.00;;;;;;4996921;28;20914;-45
2022/11/04 10:20:14;;;;;;;9.40;9.00;;;12.50;32.20;;;;;;4999053;28;20709;-50
2022/11/04 10:22:49;;;;;;;9.23;8.63;;;12.50;31.80;;;;;;4998953;28;20807;-47
2022/11/04 10:25:20;;;;;;;8.90;8.53;;;12.50;32.00;;;;;;4983837;28;20471;-45
2022/11/04 10:27:47;;;;;;;10.03;9.63;;;12.50;32.00;;;;;;4980553;28;20990;-47
2022/11/04 10:30:21;;;;;;;9.47;9.07;;;12.50;31.30;;;;;;4979633;28;20945;-46
2022/11/04 10:32:50;;;;;;;10.20;9.70;;;12.50;31.70;;;;;;4979928;28;20448;-49
2022/11/04 10:35:35;;;;;;;12.20;9.60;;;12.50;31.40;;;;;;4979303;28;20967;-46
2022/11/04 10:38:16;;;;;;;9.27;8.93;;;12.50;31.10;;;;;;4984938;28;20435;-51
2022/11/04 10:40:46;;;;;;;10.13;9.70;;;12.60;31.20;;;;;;4999078;28;20451;-49
2022/11/04 10:43:17;;;;;;;9.97;9.60;;;12.60;31.00;;;;;;4999186;28;20935;-48
2022/11/04 10:46:06;;;;;;;10.50;9.87;;;12.70;31.30;;;;;;4999567;28;20467;-46
2022/11/04 10:49:04;;;;;;;9.87;9.37;;;12.70;30.80;;;;;;4996201;28;20884;-50
2022/11/04 10:51:30;;;;;;;9.83;9.37;;;12.80;30.90;;;;;;4927303;28;20470;-50
2022/11/04 10:53:57;;;;;;;10.10;9.70;;;12.90;30.50;;;;;;4999522;28;20451;-50
2022/11/04 10:56:49;;;;;;;10.33;9.53;;;12.90;30.70;;;;;;4999085;28;20231;-51
2022/11/04 10:59:23;;;;;;;10.50;10.10;;;12.90;30.50;;;;;;4998050;28;20455;-48
2022/11/04 11:01:51;;;;;;;10.57;10.00;;;13.00;30.80;;;;;;4998608;28;20928;-46
2022/11/04 11:04:35;;;;;;;9.80;9.00;;;13.10;30.20;;;;;;4999705;28;20443;-46
2022/11/04 11:07:07;;;;;;;9.93;9.53;;;13.10;29.60;;;;;;4997941;28;20577;-45
2022/11/04 11:09:35;;;;;;;9.83;9.43;;;13.00;29.70;;;;;;5017042;28;20534;-49
2022/11/04 11:12:05;;;;;;;10.00;9.47;;;13.00;30.70;;;;;;5016792;28;20459;-50
2022/11/04 11:14:36;;;;;;;9.20;8.70;;;12.90;30.40;;;;;;4998585;28;20828;-45
2022/11/04 11:17:14;;;;;;;9.57;9.17;;;13.00;30.10;;;;;;4999081;28;20485;-48
2022/11/04 11:20:06;;;;;;;9.90;9.20;;;13.00;30.00;;;;;;4999251;28;20458;-50
2022/11/04 11:22:41;;;;;;;9.57;9.10;;;12.90;29.80;;;;;;4979349;28;20460;-47
2022/11/04 11:25:44;;;;;;;9.60;9.20;;;12.90;29.60;;;;;;4997547;28;20772;-50
2022/11/04 11:28:20;;;;;;;9.00;8.70;;;12.90;29.60;;;;;;4934596;28;20483;-47
2022/11/04 11:30:45;;;;;;;10.40;9.80;;;12.80;29.70;;;;;;4975286;28;20448;-51
2022/11/04 11:33:19;;;;;;;9.10;8.70;;;12.90;29.70;;;;;;4992661;28;20464;-51
2022/11/04 11:35:58;;;;;;;9.77;9.27;;;12.90;29.80;;;;;;4991941;28;20233;-49
2022/11/04 11:38:33;;;;;;;10.33;9.83;;;12.90;29.80;;;;;;4981086;28;20451;-49
2022/11/04 11:41:17;;;;;;;9.73;9.33;;;12.90;30.00;;;;;;4993931;28;20568;-51
2022/11/04 11:43:48;;;;;;;10.27;9.53;;;12.90;29.70;;;;;;4994928;28;20488;-49
2022/11/04 11:46:24;;;;;;;10.50;10.10;;;12.90;29.70;;;;;;4995541;28;20471;-50
2022/11/04 11:48:52;;;;;;;9.13;8.73;;;12.90;29.80;;;;;;4995769;28;20451;-48
2022/11/04 11:51:43;;;;;;;9.03;8.63;;;12.90;29.70;;;;;;4994099;28;20875;-47
2022/11/04 11:54:15;;;;;;;9.80;9.03;;;13.00;29.90;;;;;;4996927;28;20868;-50
2022/11/04 11:56:49;;;;;;;9.90;9.40;;;13.10;29.80;;;;;;4993853;28;20512;-51
2022/11/04 11:59:21;;;;;;;9.30;8.80;;;13.20;29.50;;;;;;4994569;28;20460;-49
2022/11/04 12:02:00;;;;;;;10.03;9.33;;;13.40;29.10;;;;;;4996386;28;20468;-49
2022/11/04 12:04:26;;;;;;;9.10;8.53;;;13.40;28.30;;;;;;4995178;28;20455;-50
2022/11/04 12:07:11;;;;;;;8.87;8.37;;;13.30;28.70;;;;;;4985763;28;20540;-49
2022/11/04 12:10:01;;;;;;;9.73;9.23;;;13.20;28.30;;;;;;4975914;28;20241;-49
2022/11/04 12:12:41;;;;;;;9.03;8.53;;;13.20;28.50;;;;;;4977156;28;20471;-47
2022/11/04 12:15:28;;;;;;;9.90;9.40;;;13.30;28.30;;;;;;4985493;28;20459;-45
2022/11/04 12:18:09;;;;;;;10.27;9.53;;;13.20;28.20;;;;;;4999307;28;20537;-47
2022/11/04 12:20:47;;;;;;;9.50;8.90;;;13.20;28.50;;;;;;4997729;28;20459;-48
2022/11/04 12:23:42;;;;;;;9.80;9.20;;;13.20;28.30;;;;;;4979163;28;20463;-47
2022/11/04 12:26:23;;;;;;;10.30;9.60;;;13.30;28.20;;;;;;4970142;28;21675;-46
2022/11/04 12:29:04;;;;;;;9.73;9.40;;;13.40;28.30;;;;;;4998461;28;20463;-45
2022/11/04 12:31:38;;;;;;;9.77;9.37;;;13.50;28.20;;;;;;4999056;28;20458;-48
2022/11/04 12:34:10;;;;;;;9.93;9.23;;;13.60;28.10;;;;;;4999288;28;20462;-49
2022/11/04 12:36:46;;;;;;;9.43;9.07;;;13.60;28.00;;;;;;4998649;28;20451;-48
2022/11/04 12:39:38;;;;;;;8.70;8.30;;;13.80;28.10;;;;;;4998976;28;20459;-44
2022/11/04 12:42:31;;;;;;;10.40;9.67;;;13.70;28.10;;;;;;4996107;28;21075;-59
2022/11/04 12:45:05;;;;;;;9.57;9.07;;;13.50;28.10;;;;;;4994150;28;20840;-59
2022/11/04 12:47:36;;;;;;;10.67;10.17;;;13.50;28.30;;;;;;4977637;28;20444;-59
2022/11/04 12:50:55;;;;;;;10.80;10.07;;;13.50;28.40;;;;;;4977359;28;20563;-51
2022/11/04 12:53:54;;;;;;;10.77;10.23;;;13.50;28.80;;;;;;4936996;29;20526;-49
2022/11/04 12:56:36;;;;;;;10.70;10.30;;;13.50;28.70;;;;;;4978352;28;20440;-46
2022/11/04 12:59:07;;;;;;;11.63;11.03;;;13.60;28.40;;;;;;4981197;28;20459;-49
2022/11/04 13:01:50;;;;;;;15.60;14.20;;;13.50;27.90;;;;;;4982816;28;20840;-47
2022/11/04 13:04:22;;;;;;;10.10;9.70;;;13.50;28.70;;;;;;4982408;28;20453;-48
2022/11/04 13:06:51;;;;;;;10.93;10.50;;;13.70;28.40;;;;;;4995593;28;20463;-49
2022/11/04 13:09:31;;;;;;;11.40;10.80;;;13.80;28.00;;;;;;5002102;28;20981;-49
2022/11/04 13:12:24;;;;;;;9.60;9.20;;;13.90;27.70;;;;;;5000715;28;20498;-50
2022/11/04 13:15:27;;;;;;;10.70;10.30;;;14.00;27.10;;;;;;4985085;28;20887;-50
2022/11/04 13:17:58;;;;;;;10.27;9.57;;;14.10;27.40;;;;;;4942364;28;20460;-50
2022/11/04 13:20:42;;;;;;;10.77;10.37;;;14.10;26.70;;;;;;4991196;28;20448;-48
2022/11/04 13:23:27;;;;;;;13.20;12.17;;;14.00;27.10;;;;;;4997953;28;20874;-50
2022/11/04 13:25:54;;;;;;;10.60;10.10;;;13.90;27.30;;;;;;4997282;28;20475;-49
2022/11/04 13:28:21;;;;;;;9.30;8.90;;;13.80;27.20;;;;;;4997788;28;21171;-51
2022/11/04 13:31:05;;;;;;;10.60;9.93;;;13.90;27.10;;;;;;4996826;28;20451;-48
2022/11/04 13:33:57;;;;;;;10.30;9.90;;;13.90;26.90;;;;;;4996995;28;20982;-47
2022/11/04 13:36:41;;;;;;;10.57;10.17;;;13.90;26.80;;;;;;4999666;28;20972;-48